Time;durP1;ratioP1;P1;durP2;ratioP2;P2;SDS_P1;SDS_P2;PMS_P1;PMS_P2;Temp;Humidity;BMP_temperature;BMP_pressure;BME280_temperature;BME280_humidity;BME280_pressure;Samples;Min_cycle;Max_cycle;Signal;HPM_P1;HPM_P2
2022/06/02 08:14:55;;;;;;;6.88;2.92;;;14.80;98.70;;;;;;5091099;27;20374;-51
2022/06/02 08:17:28;;;;;;;3.85;3.33;;;14.80;99.10;;;;;;5076538;28;20041;-50
2022/06/02 08:19:57;;;;;;;4.68;3.13;;;14.90;98.60;;;;;;5070310;28;20037;-52
2022/06/02 08:22:24;;;;;;;6.32;3.60;;;15.10;98.60;;;;;;5069777;28;20116;-50
2022/06/02 08:24:51;;;;;;;4.40;3.45;;;15.30;98.60;;;;;;5076083;28;20480;-51
2022/06/02 08:27:18;;;;;;;4.38;3.13;;;15.40;98.00;;;;;;5068882;28;20055;-54
2022/06/02 08:29:44;;;;;;;4.95;3.38;;;15.50;97.60;;;;;;5068998;28;20098;-52
2022/06/02 08:32:11;;;;;;;4.97;3.95;;;15.60;97.20;;;;;;5064777;28;20045;-54
2022/06/02 08:34:38;;;;;;;7.38;4.40;;;15.60;97.60;;;;;;5067862;28;20060;-54
2022/06/02 08:37:05;;;;;;;5.03;4.13;;;15.70;97.60;;;;;;5061953;28;20045;-55
2022/06/02 08:39:31;;;;;;;4.55;3.63;;;15.80;97.70;;;;;;5064625;28;20029;-53
2022/06/02 08:41:58;;;;;;;4.13;3.67;;;15.90;97.70;;;;;;5069506;28;20495;-53
2022/06/02 08:44:25;;;;;;;4.63;3.33;;;15.90;97.40;;;;;;5066012;28;20082;-50
2022/06/02 08:46:52;;;;;;;5.25;3.67;;;16.00;97.50;;;;;;5069314;28;20047;-56
2022/06/02 08:49:19;;;;;;;5.78;4.00;;;16.00;97.10;;;;;;5069803;28;20049;-53
2022/06/02 08:51:45;;;;;;;5.03;3.50;;;16.00;97.00;;;;;;5074428;28;20045;-54
2022/06/02 08:54:13;;;;;;;6.85;3.30;;;16.00;95.90;;;;;;5069498;28;20154;-54
2022/06/02 08:56:40;;;;;;;4.07;3.05;;;16.00;96.20;;;;;;5072665;28;20033;-51
2022/06/02 08:59:07;;;;;;;6.88;2.83;;;16.00;96.20;;;;;;5069547;28;20041;-51
2022/06/02 09:01:34;;;;;;;5.70;3.08;;;16.10;95.70;;;;;;5069418;28;20488;-51
2022/06/02 09:04:09;;;;;;;;;;;16.20;95.60;;;;;;5074869;28;20045;-55
2022/06/02 09:06:36;;;;;;;4.65;3.10;;;16.20;95.10;;;;;;5069429;28;19921;-54
2022/06/02 09:09:03;;;;;;;5.28;3.33;;;16.30;95.20;;;;;;5064110;28;20052;-53
2022/06/02 09:11:30;;;;;;;5.05;3.47;;;16.30;95.00;;;;;;5063034;28;20049;-54
2022/06/02 09:13:57;;;;;;;5.13;3.03;;;16.30;94.90;;;;;;5062207;28;20381;-56
2022/06/02 09:16:24;;;;;;;4.47;3.50;;;16.40;93.90;;;;;;5074259;28;20040;-52
2022/06/02 09:18:51;;;;;;;5.88;3.15;;;16.40;94.50;;;;;;5062110;28;20032;-54
2022/06/02 09:21:32;;;;;;;3.72;3.10;;;16.50;94.10;;;;;;5068737;28;20443;-55
2022/06/02 09:23:59;;;;;;;4.88;3.50;;;16.60;94.30;;;;;;5068429;28;20067;-55
2022/06/02 09:26:26;;;;;;;5.63;3.50;;;16.50;94.20;;;;;;5053874;28;20043;-53
2022/06/02 09:28:53;;;;;;;7.47;3.50;;;16.60;94.10;;;;;;5055685;28;20369;-54
2022/06/02 09:31:20;;;;;;;5.28;3.28;;;16.50;94.20;;;;;;5055729;28;20224;-53
2022/06/02 09:33:47;;;;;;;4.88;3.38;;;16.60;93.50;;;;;;5055682;28;20052;-54
2022/06/02 09:36:13;;;;;;;10.82;4.53;;;16.50;92.70;;;;;;5054877;28;20041;-51
2022/06/02 09:38:41;;;;;;;5.38;3.63;;;16.50;92.90;;;;;;5055620;28;20096;-52
2022/06/02 09:41:08;;;;;;;4.97;3.78;;;16.60;93.30;;;;;;5055489;28;20060;-53
2022/06/02 09:43:35;;;;;;;6.53;3.47;;;16.60;92.60;;;;;;5055271;28;20072;-51
2022/06/02 09:46:02;;;;;;;5.63;3.90;;;16.70;92.40;;;;;;5055428;28;20091;-54
2022/06/02 09:48:49;;;;;;;4.25;3.50;;;16.90;92.70;;;;;;5055616;28;20492;-52
2022/06/02 09:51:16;;;;;;;4.60;3.08;;;17.00;91.50;;;;;;5055416;28;20041;-53
2022/06/02 09:53:43;;;;;;;5.15;3.22;;;17.00;90.40;;;;;;5055245;28;20045;-51
2022/06/02 09:56:09;;;;;;;6.90;3.40;;;17.00;91.10;;;;;;5055280;28;20106;-52
2022/06/02 09:58:36;;;;;;;7.95;2.90;;;17.10;90.90;;;;;;5055280;28;20044;-52
2022/06/02 10:01:03;;;;;;;7.13;2.75;;;17.20;91.30;;;;;;5055221;28;20041;-52
2022/06/02 10:03:30;;;;;;;5.53;2.45;;;17.40;90.20;;;;;;5055752;28;20037;-51
2022/06/02 10:05:56;;;;;;;4.53;2.88;;;17.50;90.00;;;;;;5055186;28;20033;-54
2022/06/02 10:08:23;;;;;;;5.93;2.95;;;17.70;90.30;;;;;;5054848;28;20040;-55
2022/06/02 10:10:50;;;;;;;7.50;2.67;;;17.60;90.40;;;;;;5055139;28;20044;-52
2022/06/02 10:13:17;;;;;;;5.70;3.38;;;17.70;90.30;;;;;;5053417;28;20056;-49
2022/06/02 10:15:43;;;;;;;6.65;3.30;;;17.70;90.70;;;;;;5059215;28;20035;-55
2022/06/02 10:18:10;;;;;;;3.85;2.70;;;17.70;90.00;;;;;;5054977;28;20091;-54
2022/06/02 10:20:37;;;;;;;4.75;2.13;;;17.80;89.80;;;;;;5055494;28;20033;-53
2022/06/02 10:23:04;;;;;;;7.60;2.45;;;17.90;89.80;;;;;;5054743;28;20045;-54
2022/06/02 10:25:31;;;;;;;4.78;2.58;;;18.10;87.80;;;;;;5058328;28;20495;-51
2022/06/02 10:27:58;;;;;;;3.90;2.72;;;18.20;87.40;;;;;;5054800;28;20080;-53
2022/06/02 10:30:24;;;;;;;5.03;3.35;;;18.20;85.70;;;;;;5054607;28;20082;-55
2022/06/02 10:32:52;;;;;;;5.07;3.17;;;18.10;89.70;;;;;;5059271;28;20040;-49
2022/06/02 10:35:18;;;;;;;6.68;3.30;;;18.10;89.90;;;;;;5054476;28;20116;-55
2022/06/02 10:37:45;;;;;;;5.82;3.33;;;18.20;90.20;;;;;;5054665;28;20075;-51
2022/06/02 10:40:12;;;;;;;5.43;2.80;;;18.30;90.10;;;;;;5054636;28;20040;-53
2022/06/02 10:42:39;;;;;;;4.65;3.05;;;18.30;90.00;;;;;;5054413;28;20178;-52
2022/06/02 10:45:05;;;;;;;5.70;3.38;;;18.30;90.00;;;;;;5058061;28;20071;-49
2022/06/02 10:47:33;;;;;;;6.78;3.95;;;18.30;89.70;;;;;;5054422;28;20037;-53
2022/06/02 10:50:00;;;;;;;5.05;3.42;;;18.40;89.40;;;;;;5054251;28;20040;-54
2022/06/02 10:52:27;;;;;;;4.25;3.70;;;18.40;89.90;;;;;;5055542;28;20076;-51
2022/06/02 10:54:54;;;;;;;5.78;3.90;;;18.40;89.70;;;;;;5054061;28;20041;-54
2022/06/02 10:57:21;;;;;;;5.55;4.20;;;18.30;89.30;;;;;;5053839;28;20041;-57
2022/06/02 10:59:47;;;;;;;4.45;2.92;;;18.20;90.00;;;;;;5047650;28;20091;-53
2022/06/02 11:02:14;;;;;;;6.07;3.30;;;18.30;88.70;;;;;;5045999;28;20053;-54
2022/06/02 11:04:41;;;;;;;4.95;3.65;;;18.40;88.10;;;;;;5053364;28;20071;-55
2022/06/02 11:07:08;;;;;;;4.28;2.80;;;18.40;87.60;;;;;;5053797;28;20041;-56
2022/06/02 11:09:35;;;;;;;5.13;4.22;;;18.50;87.50;;;;;;5053797;28;20091;-53
2022/06/02 11:12:01;;;;;;;5.10;3.85;;;18.50;87.10;;;;;;5053822;28;20033;-55
2022/06/02 11:14:28;;;;;;;4.47;3.33;;;18.50;87.50;;;;;;5053659;28;20053;-53
2022/06/02 11:16:55;;;;;;;7.90;3.75;;;18.50;87.00;;;;;;5059407;28;20395;-53
2022/06/02 11:19:21;;;;;;;5.40;3.40;;;18.50;87.30;;;;;;5053850;28;20072;-54
2022/06/02 11:21:48;;;;;;;5.00;3.22;;;18.70;85.90;;;;;;5053704;28;20045;-53
2022/06/02 11:24:15;;;;;;;4.40;3.17;;;18.70;84.80;;;;;;5053416;28;20083;-52
2022/06/02 11:26:42;;;;;;;3.95;2.95;;;18.90;85.80;;;;;;5052218;28;20045;-51
2022/06/02 11:29:09;;;;;;;8.02;2.85;;;19.00;86.60;;;;;;5053375;28;20033;-53
2022/06/02 11:31:35;;;;;;;3.47;2.92;;;19.20;85.10;;;;;;5053404;28;20071;-52
2022/06/02 11:34:02;;;;;;;4.72;3.13;;;19.20;85.80;;;;;;5053178;28;20044;-52
2022/06/02 11:36:29;;;;;;;4.75;3.58;;;19.20;86.80;;;;;;5053250;28;20049;-53
2022/06/02 11:38:56;;;;;;;5.68;3.40;;;19.10;84.80;;;;;;5055346;28;20044;-54
2022/06/02 11:41:23;;;;;;;5.47;3.17;;;19.00;85.40;;;;;;5053305;28;20056;-56
2022/06/02 11:43:49;;;;;;;5.72;3.25;;;19.00;85.60;;;;;;5053166;28;20041;-51
2022/06/02 11:46:16;;;;;;;4.82;3.28;;;19.00;83.70;;;;;;5053230;28;20523;-51
2022/06/02 11:48:43;;;;;;;5.43;3.28;;;18.90;85.10;;;;;;5052841;28;20084;-52
2022/06/02 11:51:10;;;;;;;3.30;2.90;;;18.80;85.10;;;;;;5051885;28;20037;-50
2022/06/02 11:53:37;;;;;;;6.30;2.65;;;18.90;85.60;;;;;;5053266;28;20441;-57
2022/06/02 11:56:04;;;;;;;6.25;2.63;;;19.00;85.30;;;;;;5053063;28;20411;-55
2022/06/02 11:58:31;;;;;;;3.60;2.83;;;19.00;85.30;;;;;;5053242;28;20060;-54
2022/06/02 12:00:58;;;;;;;5.50;2.40;;;19.10;83.90;;;;;;5051501;28;20043;-52
2022/06/02 12:03:25;;;;;;;5.07;3.17;;;19.20;84.40;;;;;;5054994;28;20048;-55
2022/06/02 12:05:52;;;;;;;4.28;3.05;;;19.40;84.30;;;;;;5053022;28;20032;-52
2022/06/02 12:08:18;;;;;;;3.35;2.72;;;19.60;83.10;;;;;;5053231;28;20469;-52
2022/06/02 12:10:45;;;;;;;4.90;3.10;;;19.80;82.80;;;;;;5052498;28;20049;-55
2022/06/02 12:13:12;;;;;;;3.40;2.60;;;19.90;82.90;;;;;;5052611;28;20049;-53
2022/06/02 12:15:39;;;;;;;3.30;2.10;;;20.10;82.60;;;;;;5057906;28;20040;-54
2022/06/02 12:18:11;;;;;;;3.95;2.50;;;20.10;80.70;;;;;;5052891;28;20049;-50
2022/06/02 12:20:38;;;;;;;3.60;2.45;;;20.10;81.00;;;;;;5052843;28;20040;-52
2022/06/02 12:23:05;;;;;;;4.97;2.30;;;20.20;81.20;;;;;;5051371;28;20049;-55
2022/06/02 12:25:31;;;;;;;3.28;2.15;;;20.30;80.10;;;;;;5052756;28;20049;-52
2022/06/02 12:27:58;;;;;;;3.15;1.80;;;20.40;81.60;;;;;;5052827;28;20037;-53
2022/06/02 12:30:29;;;;;;;4.32;2.13;;;20.50;80.10;;;;;;5052933;28;20119;-54
2022/06/02 12:32:56;;;;;;;5.07;2.10;;;20.60;78.50;;;;;;5052708;28;20083;-51
2022/06/02 12:35:23;;;;;;;3.15;2.03;;;20.60;77.20;;;;;;5052843;28;20048;-53
2022/06/02 12:37:50;;;;;;;2.38;1.70;;;20.60;76.00;;;;;;5051473;28;20476;-49
2022/06/02 12:40:16;;;;;;;4.28;2.00;;;20.50;75.50;;;;;;5052723;28;20049;-53
2022/06/02 12:42:43;;;;;;;3.10;2.20;;;20.40;76.80;;;;;;5052532;28;20140;-55
2022/06/02 12:45:10;;;;;;;4.03;2.20;;;20.40;78.00;;;;;;5053853;28;20041;-55
2022/06/02 12:47:37;;;;;;;4.18;2.67;;;20.50;77.80;;;;;;5052800;28;20045;-56
2022/06/02 12:50:03;;;;;;;3.30;2.10;;;20.60;78.20;;;;;;5052639;28;20053;-51
2022/06/02 12:52:30;;;;;;;2.83;2.03;;;20.80;78.60;;;;;;5052514;28;20041;-54
2022/06/02 12:54:57;;;;;;;3.65;2.20;;;20.90;77.50;;;;;;5052584;28;20037;-52
2022/06/02 12:57:24;;;;;;;4.20;2.00;;;20.90;77.50;;;;;;5052295;28;20102;-53
2022/06/02 12:59:51;;;;;;;4.85;2.38;;;20.80;76.40;;;;;;5052999;28;20091;-55
2022/06/02 13:02:18;;;;;;;5.32;2.08;;;20.70;74.70;;;;;;5056297;28;20124;-56
2022/06/02 13:04:45;;;;;;;2.88;1.90;;;20.80;76.30;;;;;;5056178;28;20037;-54
2022/06/02 13:07:12;;;;;;;2.47;1.90;;;20.90;77.20;;;;;;5056198;28;20045;-49
2022/06/02 13:09:39;;;;;;;5.05;2.10;;;21.00;77.50;;;;;;5056113;28;20041;-53
2022/06/02 13:12:05;;;;;;;2.70;1.85;;;20.90;77.50;;;;;;5056054;28;20041;-53
2022/06/02 13:14:32;;;;;;;4.25;2.13;;;20.90;77.10;;;;;;5054726;28;20060;-49
2022/06/02 13:16:59;;;;;;;4.57;1.92;;;21.00;76.90;;;;;;5060106;28;20473;-51
2022/06/02 13:19:26;;;;;;;3.80;2.33;;;20.90;77.10;;;;;;5056155;28;20120;-53
2022/06/02 13:21:53;;;;;;;5.10;2.38;;;20.90;76.40;;;;;;5055926;28;20041;-53
2022/06/02 13:24:23;;;;;;;2.72;2.22;;;20.80;76.10;;;;;;5055610;28;20041;-56
2022/06/02 13:26:49;;;;;;;2.92;1.95;;;20.70;76.40;;;;;;5055864;28;20033;-55
2022/06/02 13:29:17;;;;;;;4.40;1.90;;;20.60;77.20;;;;;;5055712;28;20041;-55
2022/06/02 13:31:45;;;;;;;3.80;1.52;;;20.50;78.30;;;;;;5056042;28;20094;-55
2022/06/02 13:34:12;;;;;;;3.83;1.70;;;20.70;78.10;;;;;;5055645;28;20041;-54
2022/06/02 13:36:39;;;;;;;3.38;2.03;;;20.70;77.10;;;;;;5055665;28;20047;-52
2022/06/02 13:39:06;;;;;;;6.15;1.98;;;20.70;77.10;;;;;;5055728;28;20055;-53
2022/06/02 13:41:33;;;;;;;4.68;2.40;;;20.60;76.00;;;;;;5055590;28;20099;-56
2022/06/02 13:44:00;;;;;;;5.90;1.90;;;20.60;76.00;;;;;;5054324;28;20128;-51
2022/06/02 13:46:30;;;;;;;4.07;2.42;;;20.60;77.20;;;;;;5061590;28;20045;-51
2022/06/02 13:48:57;;;;;;;3.70;2.03;;;20.70;75.60;;;;;;5055618;28;20051;-55
2022/06/02 13:51:24;;;;;;;4.85;2.22;;;20.70;75.60;;;;;;5055256;28;20484;-52
2022/06/02 13:59:29;;;;;;;;;;;20.60;75.40;;;;;;5055749;28;20045;-52
2022/06/02 14:01:56;;;;;;;3.38;1.73;;;20.50;74.10;;;;;;5055206;28;19921;-55
2022/06/02 14:04:23;;;;;;;3.88;1.77;;;20.40;75.90;;;;;;5055064;28;20072;-53
2022/06/02 14:06:49;;;;;;;2.78;1.80;;;20.40;76.00;;;;;;5055347;28;20037;-53
2022/06/02 14:09:16;;;;;;;2.80;1.42;;;20.50;75.60;;;;;;5055019;28;20503;-53
2022/06/02 14:11:43;;;;;;;3.92;1.90;;;20.50;75.90;;;;;;5052500;28;20037;-54
2022/06/02 14:14:10;;;;;;;3.67;2.22;;;20.50;75.60;;;;;;5054679;28;20096;-54
2022/06/02 14:16:36;;;;;;;6.88;2.08;;;20.60;75.30;;;;;;5056213;28;20039;-53
2022/06/02 14:19:03;;;;;;;5.20;2.65;;;20.70;74.70;;;;;;5054863;28;20048;-56
2022/06/02 14:21:30;;;;;;;4.57;1.73;;;20.80;75.90;;;;;;5055026;28;20464;-55
2022/06/02 14:23:58;;;;;;;3.55;2.30;;;20.80;75.10;;;;;;5055006;28;20044;-52
2022/06/02 14:26:24;;;;;;;3.78;2.13;;;20.80;75.40;;;;;;5054873;28;20146;-52
2022/06/02 14:28:51;;;;;;;3.65;2.08;;;20.90;74.30;;;;;;5054714;28;20051;-53
2022/06/02 14:31:18;;;;;;;3.25;1.83;;;20.90;74.30;;;;;;5054800;28;20094;-47
2022/06/02 14:33:45;;;;;;;3.10;2.08;;;21.00;74.60;;;;;;5054734;28;20079;-53
2022/06/02 14:36:12;;;;;;;6.05;2.28;;;21.20;73.70;;;;;;5054615;28;20146;-49
2022/06/02 14:38:39;;;;;;;4.50;1.90;;;21.30;73.90;;;;;;5054447;28;20045;-54
2022/06/02 14:41:07;;;;;;;2.65;2.00;;;21.30;72.70;;;;;;5054848;28;20045;-51
2022/06/02 14:43:34;;;;;;;4.20;2.08;;;21.00;73.40;;;;;;5054328;28;20048;-56
2022/06/02 14:46:01;;;;;;;4.18;1.85;;;21.00;74.00;;;;;;5058530;28;20051;-51
2022/06/02 14:48:27;;;;;;;12.50;10.98;;;21.00;73.10;;;;;;5054371;28;20033;-52
2022/06/02 14:50:54;;;;;;;3.20;2.00;;;21.00;73.60;;;;;;5054327;28;20546;-54
2022/06/02 14:53:21;;;;;;;2.97;1.95;;;21.10;74.10;;;;;;5054029;28;20041;-54
2022/06/02 14:55:48;;;;;;;4.80;2.05;;;21.00;73.40;;;;;;5054187;28;20075;-51
2022/06/02 14:58:15;;;;;;;4.68;2.08;;;21.00;73.70;;;;;;5047624;28;20045;-53
2022/06/02 15:00:41;;;;;;;3.25;1.85;;;21.10;73.40;;;;;;5047607;28;20049;-51
2022/06/02 15:03:08;;;;;;;4.18;2.00;;;21.10;73.40;;;;;;5047462;28;20158;-52
2022/06/02 15:05:35;;;;;;;4.18;2.17;;;21.20;73.40;;;;;;5054105;28;20044;-54
2022/06/02 15:08:02;;;;;;;3.92;2.05;;;21.20;73.50;;;;;;5054103;28;20037;-52
2022/06/02 15:10:29;;;;;;;4.43;1.92;;;21.30;72.90;;;;;;5053857;28;20484;-54
2022/06/02 15:12:56;;;;;;;3.50;1.70;;;21.30;72.20;;;;;;5053360;28;20041;-53
2022/06/02 15:15:22;;;;;;;3.45;1.75;;;21.50;72.80;;;;;;5060076;28;20466;-48
2022/06/02 15:17:49;;;;;;;3.13;1.80;;;21.50;72.10;;;;;;5053880;28;20045;-55
2022/06/02 15:20:17;;;;;;;3.03;1.60;;;21.60;72.70;;;;;;5053766;28;20040;-50
2022/06/02 15:23:04;;;;;;;6.40;1.90;;;21.60;72.20;;;;;;5053157;28;20045;-52
2022/06/02 15:25:30;;;;;;;4.88;2.00;;;21.70;71.50;;;;;;5053483;28;20033;-53
2022/06/02 15:27:57;;;;;;;4.05;1.58;;;21.70;70.80;;;;;;5053636;28;20037;-54
2022/06/02 15:30:24;;;;;;;4.85;1.60;;;21.40;70.40;;;;;;5053744;28;20045;-53
2022/06/02 15:32:50;;;;;;;3.05;1.50;;;21.30;71.10;;;;;;5053531;28;20044;-54
2022/06/02 15:35:22;;;;;;;3.42;1.90;;;21.50;71.30;;;;;;5052445;28;20047;-53
2022/06/02 15:37:49;;;;;;;5.03;2.35;;;21.70;71.30;;;;;;5053359;28;20045;-52
2022/06/02 15:40:15;;;;;;;4.35;1.90;;;21.80;71.00;;;;;;5052026;28;20040;-54
2022/06/02 15:42:42;;;;;;;3.33;1.55;;;22.00;71.00;;;;;;5053427;28;20041;-55
2022/06/02 15:45:09;;;;;;;5.07;1.88;;;22.30;69.90;;;;;;5055285;28;20036;-51
2022/06/02 15:47:36;;;;;;;3.70;1.52;;;22.80;69.40;;;;;;5053376;28;20064;-53
2022/06/02 15:50:04;;;;;;;2.45;1.30;;;23.40;69.10;;;;;;5053341;28;20506;-53
2022/06/02 15:52:31;;;;;;;4.82;1.45;;;23.90;68.00;;;;;;5053178;28;20107;-51
2022/06/02 15:54:58;;;;;;;4.00;1.30;;;24.20;65.50;;;;;;5053178;28;20045;-55
2022/06/02 15:57:24;;;;;;;2.28;1.20;;;24.40;65.30;;;;;;5053396;28;20098;-54
2022/06/02 15:59:51;;;;;;;3.97;1.60;;;24.40;63.60;;;;;;5053096;28;20052;-53
2022/06/02 16:02:18;;;;;;;1.90;1.20;;;24.60;64.70;;;;;;5053038;28;20045;-52
2022/06/02 16:04:45;;;;;;;3.25;1.70;;;24.90;64.70;;;;;;5052852;28;20459;-56
2022/06/02 16:07:11;;;;;;;3.05;1.70;;;25.20;62.60;;;;;;5053192;28;20041;-52
2022/06/02 16:12:24;;;;;;;3.28;1.63;;;24.50;62.90;;;;;;5053206;28;20051;-53
2022/06/02 16:14:51;;;;;;;3.55;1.40;;;24.60;63.40;;;;;;5054213;28;20117;-57
2022/06/02 16:17:17;;;;;;;3.65;1.42;;;24.60;61.80;;;;;;5055727;28;20037;-50
2022/06/02 16:19:44;;;;;;;3.38;1.35;;;24.50;61.90;;;;;;5052916;28;20053;-54
2022/06/02 16:22:12;;;;;;;3.55;1.58;;;24.70;62.50;;;;;;5052902;28;20059;-55
2022/06/02 16:24:39;;;;;;;3.80;1.50;;;24.90;61.90;;;;;;5055076;28;20070;-55
2022/06/02 16:27:05;;;;;;;4.60;1.42;;;25.00;60.90;;;;;;5052876;28;20048;-58
2022/06/02 16:29:32;;;;;;;5.22;1.42;;;25.10;61.30;;;;;;5052855;28;20063;-55
2022/06/02 16:31:59;;;;;;;3.63;1.15;;;25.00;60.40;;;;;;5048038;28;20041;-56
2022/06/02 16:34:26;;;;;;;3.60;1.30;;;24.80;61.40;;;;;;5052856;28;20052;-55
2022/06/02 16:36:53;;;;;;;2.30;1.10;;;24.60;61.10;;;;;;5056814;28;20049;-59
2022/06/02 16:39:20;;;;;;;4.13;1.58;;;24.70;61.00;;;;;;5056885;28;20048;-63
2022/06/02 16:41:47;;;;;;;2.78;1.13;;;24.80;60.00;;;;;;5056831;28;20052;-58
2022/06/02 16:44:13;;;;;;;3.50;1.50;;;24.60;61.10;;;;;;5056562;28;20381;-56
2022/06/02 16:46:40;;;;;;;3.40;1.33;;;24.50;61.50;;;;;;5056595;28;20052;-52
2022/06/02 16:49:07;;;;;;;1.98;1.17;;;24.80;61.40;;;;;;5058299;28;20072;-54
2022/06/02 16:51:34;;;;;;;3.15;1.52;;;25.20;60.70;;;;;;5059146;28;20392;-52
2022/06/02 16:54:01;;;;;;;2.20;1.27;;;25.40;60.30;;;;;;5054536;28;20037;-53
2022/06/02 16:56:28;;;;;;;3.38;1.40;;;25.50;60.20;;;;;;5060820;28;20041;-57
2022/06/02 16:58:56;;;;;;;2.67;1.17;;;25.20;59.10;;;;;;5056413;28;20068;-54
2022/06/02 17:01:23;;;;;;;3.05;1.30;;;24.90;59.80;;;;;;5058337;28;20065;-53
2022/06/02 17:03:50;;;;;;;2.25;1.40;;;25.10;60.60;;;;;;5054552;28;20472;-54
2022/06/02 17:06:16;;;;;;;2.20;1.13;;;24.80;59.60;;;;;;5045159;28;20037;-53
2022/06/02 17:08:43;;;;;;;2.97;1.30;;;24.80;60.70;;;;;;5051600;28;20442;-56
2022/06/02 17:11:15;;;;;;;3.10;1.48;;;24.50;60.90;;;;;;5054051;28;20431;-56
2022/06/02 17:13:42;;;;;;;3.13;1.45;;;24.40;61.80;;;;;;5055631;28;20071;-55
2022/06/02 17:16:09;;;;;;;2.55;1.30;;;24.70;61.50;;;;;;5051095;28;20046;-54
2022/06/02 17:18:37;;;;;;;4.13;1.40;;;25.20;61.10;;;;;;5053948;28;20052;-56
2022/06/02 17:21:04;;;;;;;4.82;1.35;;;25.30;60.40;;;;;;5060480;28;20492;-51
2022/06/02 17:23:31;;;;;;;3.03;1.27;;;25.50;59.80;;;;;;5050423;28;20040;-54
2022/06/02 17:25:58;;;;;;;2.45;1.25;;;25.50;59.80;;;;;;5053665;28;20488;-56
2022/06/02 17:28:24;;;;;;;2.75;1.20;;;25.60;59.80;;;;;;5047409;28;20041;-52
2022/06/02 17:30:51;;;;;;;3.38;1.30;;;25.80;58.70;;;;;;5053883;28;20040;-54
2022/06/02 17:33:18;;;;;;;3.05;1.02;;;25.90;58.40;;;;;;5045165;28;20030;-60
2022/06/02 17:35:47;;;;;;;3.38;1.13;;;26.00;58.80;;;;;;5053411;28;20111;-57
2022/06/02 17:38:16;;;;;;;440.33;54.28;;;25.90;56.80;;;;;;5050489;28;20454;-52
2022/06/02 17:40:43;;;;;;;3.25;1.20;;;26.00;58.00;;;;;;5052116;28;20060;-54
2022/06/02 17:43:09;;;;;;;2.63;1.00;;;25.60;57.40;;;;;;5051311;28;20452;-50
2022/06/02 17:45:36;;;;;;;2.95;1.10;;;25.30;58.10;;;;;;5055116;28;20033;-50
2022/06/02 17:48:03;;;;;;;3.15;1.40;;;25.40;58.30;;;;;;5049716;28;20053;-57
2022/06/02 17:50:30;;;;;;;2.50;0.82;;;25.40;57.10;;;;;;5057027;28;20048;-55
2022/06/02 17:53:01;;;;;;;2.10;1.05;;;25.30;58.50;;;;;;5055334;28;20450;-51
2022/06/02 17:55:28;;;;;;;2.75;0.98;;;25.60;57.80;;;;;;5056152;28;20037;-52
2022/06/02 17:57:54;;;;;;;2.47;1.10;;;25.70;57.00;;;;;;5047225;28;20087;-52
2022/06/02 18:00:21;;;;;;;2.25;1.00;;;25.50;56.70;;;;;;5052583;28;20074;-50
2022/06/02 18:02:48;;;;;;;2.15;1.10;;;25.50;58.00;;;;;;5047839;28;20054;-55
2022/06/02 18:05:15;;;;;;;2.55;1.00;;;25.60;57.50;;;;;;5052585;28;20045;-53
2022/06/02 18:07:41;;;;;;;3.00;1.17;;;25.50;57.10;;;;;;5051631;28;20041;-50
2022/06/02 18:10:08;;;;;;;2.35;0.82;;;25.30;57.30;;;;;;5048557;28;20033;-55
2022/06/02 18:12:35;;;;;;;2.85;1.10;;;25.60;57.00;;;;;;5055524;28;20037;-56
2022/06/02 18:15:02;;;;;;;3.08;1.00;;;25.50;56.20;;;;;;5060104;28;20049;-51
2022/06/02 18:17:29;;;;;;;2.88;1.20;;;25.30;56.30;;;;;;5054617;28;20106;-55
2022/06/02 18:20:02;;;;;;;3.63;1.20;;;25.30;57.30;;;;;;5055116;28;20045;-52
2022/06/02 18:22:29;;;;;;;3.90;1.20;;;25.40;57.20;;;;;;5054600;28;20041;-54
2022/06/02 18:24:56;;;;;;;3.28;0.90;;;25.40;56.80;;;;;;5059095;28;20037;-52
2022/06/02 18:27:23;;;;;;;2.55;1.05;;;25.10;56.80;;;;;;5054770;28;20040;-56
2022/06/02 18:29:50;;;;;;;2.17;1.10;;;24.70;57.00;;;;;;5054667;28;20041;-52
2022/06/02 18:32:19;;;;;;;3.33;1.08;;;24.70;57.70;;;;;;5054765;28;20510;-57
2022/06/02 18:34:46;;;;;;;2.10;1.13;;;24.70;57.50;;;;;;5058790;28;20150;-52
2022/06/02 18:37:13;;;;;;;3.90;1.38;;;24.30;57.40;;;;;;5054429;28;20041;-55
2022/06/02 18:39:40;;;;;;;3.00;1.58;;;23.80;58.40;;;;;;5054729;28;20045;-52
2022/06/02 18:42:06;;;;;;;1.95;1.10;;;23.30;59.60;;;;;;5051548;28;20546;-55
2022/06/02 18:44:34;;;;;;;3.40;1.20;;;23.00;60.70;;;;;;5054474;28;20577;-51
2022/06/02 18:47:01;;;;;;;1.98;1.23;;;22.70;61.50;;;;;;5054475;28;20041;-58
2022/06/02 18:49:29;;;;;;;1.80;0.98;;;22.20;61.50;;;;;;5053338;28;20087;-55
2022/06/02 18:51:55;;;;;;;1.90;1.10;;;21.90;62.60;;;;;;5052845;28;20526;-52
2022/06/02 18:54:22;;;;;;;2.15;1.05;;;21.80;62.40;;;;;;5056380;28;20044;-57
2022/06/02 18:56:49;;;;;;;2.80;1.10;;;21.60;63.40;;;;;;5047162;28;20045;-54
2022/06/02 18:59:16;;;;;;;3.38;1.33;;;21.50;63.80;;;;;;5054095;28;20094;-56
2022/06/02 19:01:43;;;;;;;2.90;1.30;;;21.40;64.80;;;;;;5054340;28;20045;-54
2022/06/02 19:04:10;;;;;;;4.22;1.20;;;21.10;65.30;;;;;;5052317;28;20577;-51
2022/06/02 19:14:53;;;;;;;;;;;20.50;69.60;;;;;;5053858;28;20056;-53
2022/06/02 19:17:20;;;;;;;3.10;1.50;;;20.30;70.70;;;;;;5054105;28;20279;-54
2022/06/02 19:19:47;;;;;;;4.85;1.92;;;20.20;71.00;;;;;;5054536;28;20052;-56
2022/06/02 19:22:14;;;;;;;5.22;1.60;;;20.00;71.50;;;;;;5054058;28;20033;-50
2022/06/02 19:24:40;;;;;;;5.63;1.50;;;19.90;72.70;;;;;;5049294;28;20032;-56
2022/06/02 19:27:10;;;;;;;4.20;1.85;;;19.70;73.10;;;;;;5053085;28;20045;-53
2022/06/02 19:29:37;;;;;;;4.30;1.70;;;19.40;73.90;;;;;;5052783;28;20040;-54
2022/06/02 19:32:03;;;;;;;3.72;1.70;;;19.40;74.70;;;;;;5053486;28;20060;-49
2022/06/02 19:34:30;;;;;;;3.25;1.80;;;19.20;75.30;;;;;;5046559;28;20079;-52
2022/06/02 19:37:00;;;;;;;4.85;1.60;;;19.10;76.00;;;;;;5051021;28;20041;-51
2022/06/02 19:39:27;;;;;;;3.53;1.60;;;18.90;77.00;;;;;;5048960;28;20065;-56
2022/06/02 19:41:54;;;;;;;5.05;1.98;;;18.80;77.70;;;;;;5043594;28;20118;-50
2022/06/02 19:44:21;;;;;;;3.53;2.25;;;18.60;78.30;;;;;;5044092;28;20055;-52
2022/06/02 19:46:48;;;;;;;5.95;1.77;;;18.40;79.30;;;;;;5049115;28;20499;-51
2022/06/02 19:49:14;;;;;;;7.40;1.98;;;18.20;79.90;;;;;;5045928;28;20507;-54
2022/06/02 19:51:41;;;;;;;3.35;2.00;;;18.10;80.30;;;;;;5049790;28;20091;-53
2022/06/02 19:54:08;;;;;;;4.85;2.28;;;18.00;80.50;;;;;;5053216;28;20037;-54
2022/06/02 19:56:35;;;;;;;4.95;2.28;;;18.00;81.10;;;;;;5056745;28;20102;-54
2022/06/02 19:59:03;;;;;;;4.13;1.88;;;17.90;81.10;;;;;;5053317;28;20045;-56
2022/06/02 20:01:30;;;;;;;6.13;2.20;;;17.80;81.40;;;;;;5055418;28;20400;-55
2022/06/02 20:03:57;;;;;;;5.25;2.35;;;17.70;81.60;;;;;;5053168;28;20041;-55
2022/06/02 20:06:24;;;;;;;6.75;3.75;;;17.50;81.50;;;;;;5052868;28;20349;-54
2022/06/02 20:08:51;;;;;;;5.57;3.65;;;17.40;81.50;;;;;;5057419;28;20420;-53
2022/06/02 20:11:18;;;;;;;3.97;2.88;;;17.40;81.90;;;;;;5053069;28;20102;-55
2022/06/02 20:13:44;;;;;;;5.40;2.45;;;17.30;82.50;;;;;;5052917;28;20403;-53
2022/06/02 20:16:12;;;;;;;4.00;2.45;;;17.20;83.20;;;;;;5052541;28;20055;-55
2022/06/02 20:18:39;;;;;;;3.65;2.30;;;17.10;83.80;;;;;;5052872;28;20045;-56
2022/06/02 20:21:05;;;;;;;4.53;2.60;;;17.00;84.50;;;;;;5052989;28;20538;-55
2022/06/02 20:23:36;;;;;;;5.43;2.88;;;17.00;84.60;;;;;;5052983;28;20068;-56
2022/06/02 20:26:03;;;;;;;5.55;3.67;;;16.90;84.70;;;;;;5053691;28;20451;-54
2022/06/02 20:28:29;;;;;;;4.30;3.08;;;16.80;85.10;;;;;;5052923;28;20041;-54
2022/06/02 20:31:01;;;;;;;6.95;3.55;;;16.70;85.40;;;;;;5054613;28;20077;-55
2022/06/02 20:33:28;;;;;;;4.97;3.22;;;16.50;85.90;;;;;;5053549;28;20043;-53
2022/06/02 20:35:54;;;;;;;5.25;3.25;;;16.40;86.50;;;;;;5053108;28;20033;-52
2022/06/02 20:38:22;;;;;;;5.55;3.53;;;16.40;86.80;;;;;;5053734;28;20091;-56
2022/06/02 20:40:48;;;;;;;4.68;3.40;;;16.30;87.20;;;;;;5052001;28;20040;-51
2022/06/02 20:43:15;;;;;;;6.10;3.65;;;16.30;87.50;;;;;;5051058;28;20029;-56
2022/06/02 20:45:42;;;;;;;6.65;3.90;;;16.30;87.90;;;;;;5052598;28;20098;-55
2022/06/02 20:48:09;;;;;;;8.15;4.82;;;16.20;88.30;;;;;;5056604;28;20041;-53
2022/06/02 20:50:36;;;;;;;6.60;4.63;;;16.10;88.80;;;;;;5052757;28;20492;-53
2022/06/02 20:53:03;;;;;;;9.52;4.47;;;16.10;89.40;;;;;;5057121;28;20041;-53
2022/06/02 20:55:52;;;;;;;8.32;4.60;;;16.00;89.80;;;;;;5052551;28;20064;-53
2022/06/02 20:58:19;;;;;;;5.93;4.55;;;16.00;90.00;;;;;;5052607;28;20045;-56
2022/06/02 21:00:46;;;;;;;9.18;5.25;;;15.90;90.20;;;;;;5052509;28;20063;-50
2022/06/02 21:03:12;;;;;;;7.40;5.00;;;15.80;90.50;;;;;;5054867;28;20095;-51
2022/06/02 21:05:39;;;;;;;8.52;5.65;;;15.80;90.60;;;;;;5052566;28;20037;-54
2022/06/02 21:08:07;;;;;;;10.75;5.63;;;15.70;90.70;;;;;;5052540;28;20037;-54
2022/06/02 21:10:33;;;;;;;8.15;6.07;;;15.70;90.90;;;;;;5049798;28;20457;-54
2022/06/02 21:13:00;;;;;;;9.38;5.50;;;15.60;91.00;;;;;;5046011;28;20065;-54
2022/06/02 21:15:27;;;;;;;7.32;6.07;;;15.60;91.20;;;;;;5052204;28;20492;-55
2022/06/02 21:17:53;;;;;;;10.23;6.40;;;15.50;91.50;;;;;;5054902;28;20098;-54